Time;durP1;ratioP1;P1;durP2;ratioP2;P2;SDS_P1;SDS_P2;PMS_P1;PMS_P2;Temp;Humidity;BMP_temperature;BMP_pressure;BME280_temperature;BME280_humidity;BME280_pressure;Samples;Min_cycle;Max_cycle;Signal;HPM_P1;HPM_P2
2023/10/27 00:01:13;;;;;;;15.95;6.00;;;8.90;99.90;;;;;;5072620;28;20108;-82
2023/10/27 00:04:02;;;;;;;18.10;6.82;;;8.90;99.90;;;;;;5091135;28;20062;-81
2023/10/27 00:06:55;;;;;;;22.35;6.93;;;8.90;99.90;;;;;;5089294;28;20036;-82
2023/10/27 00:09:47;;;;;;;13.05;5.90;;;8.80;99.90;;;;;;5075752;28;20040;-81
2023/10/27 00:12:34;;;;;;;15.52;5.68;;;8.80;99.90;;;;;;5091996;28;20424;-84
2023/10/27 00:15:24;;;;;;;20.20;6.38;;;8.90;99.90;;;;;;5092703;28;20123;-83
2023/10/27 00:18:19;;;;;;;12.57;5.75;;;8.80;99.90;;;;;;5080788;28;20119;-83
2023/10/27 00:21:10;;;;;;;11.93;5.60;;;8.80;99.90;;;;;;5090514;28;20188;-83
2023/10/27 00:23:57;;;;;;;14.05;6.22;;;8.80;99.90;;;;;;5088082;28;20044;-83
2023/10/27 00:26:44;;;;;;;16.13;6.03;;;8.80;99.90;;;;;;5069178;28;20066;-83
2023/10/27 00:29:34;;;;;;;14.45;5.90;;;8.80;99.90;;;;;;5089069;28;20416;-83
2023/10/27 00:32:21;;;;;;;15.70;5.30;;;8.70;99.90;;;;;;5087330;28;20367;-83
2023/10/27 00:35:09;;;;;;;15.85;5.93;;;8.70;99.90;;;;;;5066677;28;20089;-82
2023/10/27 00:38:00;;;;;;;11.05;5.47;;;8.70;99.90;;;;;;5090517;28;20498;-84
2023/10/27 00:40:50;;;;;;;17.88;5.82;;;8.70;99.90;;;;;;5088856;28;20086;-83
2023/10/27 00:43:39;;;;;;;15.18;5.70;;;8.70;99.90;;;;;;5077495;28;20382;-82
2023/10/27 00:46:27;;;;;;;15.20;5.40;;;8.70;99.90;;;;;;5091712;28;20059;-83
2023/10/27 00:49:17;;;;;;;17.83;5.57;;;8.70;99.90;;;;;;5097835;28;20057;-83
2023/10/27 00:52:06;;;;;;;15.82;5.50;;;8.70;99.90;;;;;;5091296;28;20048;-83
2023/10/27 00:54:54;;;;;;;15.32;5.88;;;8.60;99.90;;;;;;5082847;28;20051;-82
2023/10/27 00:57:42;;;;;;;9.52;5.30;;;8.60;99.90;;;;;;5085401;28;20397;-84
2023/10/27 01:00:30;;;;;;;13.15;5.32;;;8.70;99.90;;;;;;5094152;28;20044;-83
2023/10/27 01:03:20;;;;;;;10.50;5.20;;;8.60;99.90;;;;;;5086839;28;20379;-82
2023/10/27 01:06:10;;;;;;;11.88;5.43;;;8.60;99.90;;;;;;5092252;28;20147;-83
2023/10/27 01:09:00;;;;;;;15.38;5.97;;;8.60;99.90;;;;;;5077551;28;20499;-83
2023/10/27 01:11:49;;;;;;;13.80;5.55;;;8.60;99.90;;;;;;5077537;28;20462;-83
2023/10/27 01:14:40;;;;;;;17.63;5.57;;;8.60;99.90;;;;;;5071374;28;20047;-83
2023/10/27 01:17:29;;;;;;;11.18;5.60;;;8.60;99.90;;;;;;5083484;28;20485;-84
2023/10/27 01:20:17;;;;;;;15.43;5.70;;;8.60;99.90;;;;;;5095692;28;20059;-83
2023/10/27 01:23:05;;;;;;;8.65;5.20;;;8.60;99.90;;;;;;5102529;28;20067;-84
2023/10/27 01:26:03;;;;;;;18.15;5.95;;;8.50;99.90;;;;;;5076321;28;20044;-83
2023/10/27 01:28:53;;;;;;;19.67;5.50;;;8.50;99.90;;;;;;5074449;28;20078;-83
2023/10/27 01:31:42;;;;;;;12.82;5.43;;;8.60;99.90;;;;;;5073085;28;20036;-83
2023/10/27 01:34:30;;;;;;;11.75;5.53;;;8.50;99.90;;;;;;5078774;28;20131;-83
2023/10/27 01:37:22;;;;;;;13.63;5.55;;;8.50;99.90;;;;;;5094920;28;20059;-82
2023/10/27 01:40:10;;;;;;;13.57;5.50;;;8.50;99.90;;;;;;5093667;28;20044;-83
2023/10/27 01:42:57;;;;;;;14.82;5.32;;;8.50;99.90;;;;;;5085171;28;20051;-82
2023/10/27 01:45:47;;;;;;;13.95;4.75;;;8.50;99.90;;;;;;5095864;28;20044;-83
2023/10/27 01:48:36;;;;;;;10.00;4.75;;;8.50;99.90;;;;;;5080458;28;20127;-84
2023/10/27 01:51:24;;;;;;;13.18;4.95;;;8.50;99.90;;;;;;5081068;28;20048;-83
2023/10/27 01:54:16;;;;;;;15.50;5.13;;;8.50;99.90;;;;;;5085861;28;20043;-83
2023/10/27 01:57:03;;;;;;;9.43;4.40;;;8.50;99.90;;;;;;5079969;28;20036;-83
2023/10/27 01:59:56;;;;;;;7.60;4.43;;;8.40;99.90;;;;;;5097269;28;20044;-83
2023/10/27 02:02:48;;;;;;;10.43;4.55;;;8.40;99.90;;;;;;5063445;28;20056;-81
2023/10/27 02:05:43;;;;;;;11.95;4.47;;;8.40;99.90;;;;;;5079380;28;20052;-83
2023/10/27 02:08:35;;;;;;;12.27;4.15;;;8.40;99.90;;;;;;5087655;28;20048;-83
2023/10/27 02:11:23;;;;;;;10.50;4.25;;;8.40;99.90;;;;;;5083772;28;20080;-83
2023/10/27 02:14:10;;;;;;;7.40;4.03;;;8.40;99.90;;;;;;5073199;28;20040;-83
2023/10/27 02:16:57;;;;;;;13.43;4.25;;;8.40;99.90;;;;;;5084601;28;20059;-81
2023/10/27 02:19:45;;;;;;;9.68;4.22;;;8.40;99.90;;;;;;5093862;28;20672;-82
2023/10/27 02:22:38;;;;;;;10.77;4.70;;;8.30;99.90;;;;;;5080754;28;20040;-82
2023/10/27 02:25:28;;;;;;;;;;;8.40;99.90;;;;;;5069012;28;20041;-82
2023/10/27 02:28:16;;;;;;;10.00;4.68;;;8.30;99.90;;;;;;5075868;28;19994;-83
2023/10/27 02:31:04;;;;;;;11.05;4.95;;;8.30;99.90;;;;;;5085897;28;20048;-83
2023/10/27 02:33:53;;;;;;;7.28;4.28;;;8.30;99.90;;;;;;5095612;28;20059;-82
2023/10/27 02:36:41;;;;;;;9.27;3.92;;;8.30;99.90;;;;;;5093500;28;20385;-83
2023/10/27 02:39:30;;;;;;;13.23;4.20;;;8.40;99.90;;;;;;5095859;28;20040;-84
2023/10/27 02:42:21;;;;;;;12.32;4.43;;;8.30;99.90;;;;;;5094048;28;20168;-83
2023/10/27 02:45:09;;;;;;;11.55;4.10;;;8.40;99.90;;;;;;5092921;28;20475;-84
2023/10/27 02:47:59;;;;;;;7.65;4.15;;;8.40;99.90;;;;;;5082043;28;20048;-83
2023/10/27 02:50:47;;;;;;;6.70;3.88;;;8.30;99.90;;;;;;5090392;28;20378;-83
2023/10/27 02:53:41;;;;;;;10.60;4.50;;;8.30;99.90;;;;;;5101925;28;20056;-83
2023/10/27 02:56:31;;;;;;;10.95;4.00;;;8.40;99.90;;;;;;5091988;28;20043;-83
2023/10/27 02:59:18;;;;;;;8.63;4.47;;;8.30;99.90;;;;;;5065926;28;20059;-83
2023/10/27 03:02:08;;;;;;;9.35;4.00;;;8.30;99.90;;;;;;5070010;28;20416;-83
2023/10/27 03:04:58;;;;;;;5.78;3.80;;;8.30;99.90;;;;;;5077187;28;20058;-82
2023/10/27 03:07:49;;;;;;;10.43;4.40;;;8.30;99.90;;;;;;5083204;28;20044;-82
2023/10/27 03:10:38;;;;;;;16.38;4.70;;;8.30;99.90;;;;;;5077533;28;20068;-82
2023/10/27 03:13:27;;;;;;;7.72;3.80;;;8.30;99.90;;;;;;5088938;28;20040;-82
2023/10/27 03:16:16;;;;;;;7.05;3.15;;;8.30;99.90;;;;;;5092796;28;20040;-82
2023/10/27 03:19:04;;;;;;;8.88;3.70;;;8.20;99.90;;;;;;5074469;28;20189;-82
2023/10/27 03:21:55;;;;;;;8.13;4.05;;;8.30;99.90;;;;;;5069793;28;20101;-82
2023/10/27 03:24:44;;;;;;;9.98;3.92;;;8.20;99.90;;;;;;5069491;28;20047;-83
2023/10/27 03:27:34;;;;;;;6.35;3.90;;;8.20;99.90;;;;;;5074620;28;20044;-84
2023/10/27 03:30:25;;;;;;;10.15;3.50;;;8.30;99.90;;;;;;5070739;28;20457;-82
2023/10/27 03:33:17;;;;;;;7.30;3.90;;;8.20;99.90;;;;;;5090072;28;20044;-83
2023/10/27 03:36:05;;;;;;;6.82;3.47;;;8.20;99.90;;;;;;5068355;28;20045;-82
2023/10/27 03:38:53;;;;;;;11.30;3.90;;;8.20;99.90;;;;;;5085994;28;20046;-82
2023/10/27 03:41:42;;;;;;;7.60;3.58;;;8.20;99.90;;;;;;5076736;28;20036;-84
2023/10/27 03:44:30;;;;;;;7.65;3.50;;;8.20;99.90;;;;;;5088867;28;20317;-83
2023/10/27 03:47:17;;;;;;;11.82;3.80;;;8.20;99.90;;;;;;5083937;28;20075;-82
2023/10/27 03:50:07;;;;;;;9.48;3.30;;;8.20;99.90;;;;;;5079368;28;20039;-83
2023/10/27 03:52:54;;;;;;;4.60;3.13;;;8.20;99.90;;;;;;5074264;28;20357;-83
2023/10/27 03:55:51;;;;;;;7.40;3.50;;;8.20;99.90;;;;;;5077038;28;20083;-84
2023/10/27 03:58:39;;;;;;;8.25;3.33;;;8.20;99.90;;;;;;5076150;28;20036;-82
2023/10/27 04:01:34;;;;;;;7.55;2.55;;;8.20;99.90;;;;;;5073249;28;20055;-81
2023/10/27 04:04:24;;;;;;;6.22;2.92;;;8.20;99.90;;;;;;5083127;28;20075;-82
2023/10/27 04:07:12;;;;;;;4.63;2.40;;;8.20;99.90;;;;;;5093449;28;20356;-82
2023/10/27 04:09:59;;;;;;;6.25;2.45;;;8.20;99.90;;;;;;5089962;28;20504;-82
2023/10/27 04:12:49;;;;;;;8.95;2.90;;;8.30;99.90;;;;;;5076564;28;20048;-83
2023/10/27 04:15:38;;;;;;;9.85;3.10;;;8.30;99.90;;;;;;5072070;28;20048;-82
2023/10/27 04:18:26;;;;;;;6.85;3.10;;;8.30;99.90;;;;;;5077403;28;20525;-83
2023/10/27 04:21:15;;;;;;;4.95;2.85;;;8.30;99.90;;;;;;5089501;28;20055;-81
2023/10/27 04:24:03;;;;;;;6.47;3.17;;;8.30;99.90;;;;;;5076383;28;20050;-82
2023/10/27 04:26:50;;;;;;;7.20;2.78;;;8.30;99.90;;;;;;5085784;28;20048;-81
2023/10/27 04:29:42;;;;;;;10.57;3.55;;;8.40;99.90;;;;;;5087074;28;20336;-81
2023/10/27 04:32:32;;;;;;;6.10;3.25;;;8.30;99.90;;;;;;5072899;28;20147;-82
2023/10/27 04:35:25;;;;;;;6.70;4.00;;;8.30;99.90;;;;;;5075582;28;20143;-82
2023/10/27 04:38:14;;;;;;;9.32;4.78;;;8.40;99.90;;;;;;5080994;28;20147;-80
2023/10/27 04:41:07;;;;;;;10.45;4.90;;;8.40;99.90;;;;;;5075037;28;20072;-80
2023/10/27 04:43:55;;;;;;;7.15;3.92;;;8.40;99.90;;;;;;5088811;28;20124;-79
2023/10/27 04:46:44;;;;;;;7.07;4.47;;;8.30;99.90;;;;;;5085880;28;20181;-82
2023/10/27 04:49:32;;;;;;;8.95;3.97;;;8.40;99.90;;;;;;5073153;28;20041;-81
2023/10/27 04:52:19;;;;;;;9.95;3.80;;;8.30;99.90;;;;;;5067278;28;20067;-84
2023/10/27 04:55:08;;;;;;;10.00;4.32;;;8.30;99.90;;;;;;5086357;28;20055;-82
2023/10/27 04:58:02;;;;;;;9.65;3.72;;;8.40;99.90;;;;;;5074401;28;20125;-82
2023/10/27 05:00:56;;;;;;;8.68;4.70;;;8.40;99.90;;;;;;5064350;28;20127;-81
2023/10/27 05:03:44;;;;;;;9.15;4.38;;;8.30;99.90;;;;;;5084673;28;20039;-82
2023/10/27 05:06:33;;;;;;;7.75;4.35;;;8.40;99.90;;;;;;5092733;28;20044;-81
2023/10/27 05:09:21;;;;;;;7.60;3.47;;;8.40;99.90;;;;;;5086052;28;20136;-83
2023/10/27 05:12:11;;;;;;;7.22;3.80;;;8.40;99.90;;;;;;5090306;28;20332;-83
2023/10/27 05:14:58;;;;;;;7.63;3.53;;;8.40;99.90;;;;;;5091190;28;20056;-85
2023/10/27 05:17:49;;;;;;;8.45;4.15;;;8.40;99.90;;;;;;5075358;28;20337;-84
2023/10/27 05:20:39;;;;;;;12.63;3.92;;;8.40;99.90;;;;;;5084537;28;20041;-83
2023/10/27 05:23:31;;;;;;;7.75;3.90;;;8.40;99.90;;;;;;5073498;28;20360;-84
2023/10/27 05:26:43;;;;;;;6.32;3.58;;;8.40;99.90;;;;;;5089015;28;20063;-83
2023/10/27 05:29:30;;;;;;;6.93;4.10;;;8.40;99.90;;;;;;5076842;28;20064;-83
2023/10/27 05:32:36;;;;;;;7.47;4.30;;;8.40;99.90;;;;;;5074897;28;20155;-82
2023/10/27 05:35:26;;;;;;;10.05;4.03;;;8.40;99.90;;;;;;5082063;28;20055;-83
2023/10/27 05:38:16;;;;;;;6.90;4.13;;;8.40;99.90;;;;;;5084283;28;20063;-81
2023/10/27 05:41:06;;;;;;;5.88;4.00;;;8.40;99.90;;;;;;5067076;28;20195;-84
2023/10/27 05:43:57;;;;;;;7.90;4.78;;;8.40;99.90;;;;;;5072138;28;20044;-84
2023/10/27 05:46:47;;;;;;;6.70;3.83;;;8.40;99.90;;;;;;5104503;28;20032;-84
2023/10/27 05:49:34;;;;;;;8.57;5.32;;;8.40;99.90;;;;;;5095228;28;20048;-83
2023/10/27 05:52:22;;;;;;;9.10;5.00;;;8.50;99.90;;;;;;5089140;28;20040;-83
2023/10/27 05:55:10;;;;;;;8.73;5.20;;;8.50;99.90;;;;;;5083707;28;20049;-83
2023/10/27 05:58:00;;;;;;;9.18;5.25;;;8.60;99.90;;;;;;5070634;28;20135;-82
2023/10/27 06:00:48;;;;;;;6.57;4.75;;;8.60;99.90;;;;;;5090418;28;20070;-82
2023/10/27 06:03:36;;;;;;;14.90;8.77;;;8.60;99.90;;;;;;5071415;28;20051;-82
2023/10/27 06:06:29;;;;;;;9.82;5.97;;;8.60;99.90;;;;;;5093020;28;20363;-81
2023/10/27 06:09:19;;;;;;;10.07;7.13;;;8.60;99.90;;;;;;5074863;28;20116;-84
2023/10/27 06:12:07;;;;;;;7.30;5.95;;;8.70;99.90;;;;;;5071922;28;20040;-84
2023/10/27 06:14:58;;;;;;;7.65;5.78;;;8.70;99.90;;;;;;5089324;28;20048;-85
2023/10/27 06:17:45;;;;;;;7.43;6.20;;;8.70;99.90;;;;;;5088700;28;20442;-85
2023/10/27 06:20:36;;;;;;;8.05;5.70;;;8.70;99.90;;;;;;5076669;28;20434;-83
2023/10/27 06:23:31;;;;;;;9.32;6.05;;;8.70;99.90;;;;;;5073984;28;20036;-84
2023/10/27 06:26:20;;;;;;;8.00;5.75;;;8.70;99.90;;;;;;5088583;28;20115;-84
2023/10/27 06:29:23;;;;;;;9.73;5.70;;;8.80;99.90;;;;;;5068673;28;20474;-82
2023/10/27 06:32:05;;;;;;;11.93;6.20;;;8.80;99.90;;;;;;5110701;23;20051;-84
2023/10/27 06:34:59;;;;;;;8.63;6.18;;;8.80;99.90;;;;;;5117096;27;20099;-85
2023/10/27 06:37:46;;;;;;;18.58;8.23;;;8.80;99.90;;;;;;5112055;27;20172;-84
2023/10/27 06:40:33;;;;;;;12.88;5.93;;;8.90;99.90;;;;;;5115528;27;20047;-84
2023/10/27 06:43:24;;;;;;;6.22;5.32;;;8.80;99.90;;;;;;5111031;27;20118;-84
2023/10/27 06:46:13;;;;;;;12.95;6.07;;;8.80;99.90;;;;;;5111507;27;20184;-81
2023/10/27 06:49:06;;;;;;;10.07;5.80;;;8.90;99.90;;;;;;5113656;27;20131;-83
2023/10/27 06:51:58;;;;;;;7.40;5.03;;;8.90;99.90;;;;;;5125353;27;20562;-83
2023/10/27 06:54:49;;;;;;;6.53;3.35;;;8.90;99.90;;;;;;5132685;27;20430;-85
2023/10/27 06:57:37;;;;;;;9.27;4.60;;;8.90;99.90;;;;;;5117768;27;20340;-83
2023/10/27 07:00:25;;;;;;;8.68;3.80;;;8.90;99.90;;;;;;5132376;27;20108;-84
2023/10/27 07:03:15;;;;;;;7.93;3.53;;;9.00;99.90;;;;;;5107843;27;20046;-83
2023/10/27 07:06:19;;;;;;;7.20;3.15;;;9.00;99.90;;;;;;5126134;27;20390;-82
2023/10/27 07:09:07;;;;;;;5.78;2.60;;;9.00;99.90;;;;;;5123117;27;20439;-83
2023/10/27 07:11:55;;;;;;;4.25;2.05;;;9.00;99.90;;;;;;5113757;27;20420;-83
2023/10/27 07:14:44;;;;;;;2.38;1.60;;;9.10;99.90;;;;;;5127089;27;20043;-84
2023/10/27 07:17:32;;;;;;;1.98;1.77;;;9.10;99.90;;;;;;5121938;27;20444;-84
2023/10/27 07:20:19;;;;;;;5.32;1.63;;;9.10;99.90;;;;;;5111585;27;20035;-83
2023/10/27 07:23:07;;;;;;;1.33;1.23;;;9.20;99.90;;;;;;5113383;27;20039;-84
2023/10/27 07:26:00;;;;;;;1.55;1.15;;;9.20;99.90;;;;;;5127516;27;20054;-83
2023/10/27 07:28:50;;;;;;;;;;;9.10;99.90;;;;;;5133155;27;20113;-83
2023/10/27 07:31:37;;;;;;;1.10;1.00;;;9.20;99.90;;;;;;5132315;27;19938;-82
2023/10/27 07:34:45;;;;;;;4.95;1.13;;;9.20;99.90;;;;;;5116840;27;20320;-82
2023/10/27 07:37:34;;;;;;;2.28;1.00;;;9.30;99.90;;;;;;5121164;27;20122;-84
2023/10/27 07:40:28;;;;;;;1.15;1.05;;;9.40;99.90;;;;;;5111955;27;20114;-84
2023/10/27 07:43:18;;;;;;;1.42;1.10;;;9.40;99.90;;;;;;5126415;27;20035;-83
2023/10/27 07:46:17;;;;;;;3.30;1.27;;;9.40;99.90;;;;;;5119317;27;20051;-81
2023/10/27 07:49:04;;;;;;;2.88;1.10;;;9.30;99.90;;;;;;5129668;27;20078;-82
2023/10/27 07:51:53;;;;;;;2.80;1.10;;;9.30;99.90;;;;;;5124464;27;20055;-82
2023/10/27 07:54:41;;;;;;;2.25;1.25;;;9.30;99.90;;;;;;5120269;27;20043;-82
2023/10/27 07:57:39;;;;;;;5.18;1.52;;;9.20;99.90;;;;;;5110824;27;20431;-83
2023/10/27 08:00:30;;;;;;;3.58;2.45;;;9.20;99.90;;;;;;5131411;27;20376;-82
2023/10/27 08:03:21;;;;;;;3.78;1.80;;;9.20;99.90;;;;;;5131422;27;20036;-83
2023/10/27 08:06:09;;;;;;;2.83;1.15;;;9.10;99.90;;;;;;5113388;27;20039;-84
2023/10/27 08:09:02;;;;;;;2.78;1.20;;;9.10;99.90;;;;;;5117955;27;20039;-84
2023/10/27 08:11:50;;;;;;;3.90;1.48;;;9.20;99.90;;;;;;5104817;27;20297;-85
2023/10/27 08:14:39;;;;;;;5.45;1.20;;;9.20;99.90;;;;;;5109271;27;20043;-85
2023/10/27 08:17:29;;;;;;;31.08;3.10;;;9.10;99.90;;;;;;5115819;27;20172;-85
2023/10/27 08:20:19;;;;;;;5.32;2.28;;;9.10;99.90;;;;;;5128664;27;20092;-84
2023/10/27 08:23:10;;;;;;;5.38;1.45;;;9.10;99.90;;;;;;5131181;27;20079;-86
2023/10/27 08:26:00;;;;;;;2.25;1.48;;;9.10;99.90;;;;;;5130367;27;20039;-84
2023/10/27 08:28:50;;;;;;;5.47;1.40;;;9.10;99.90;;;;;;5110396;27;20051;-86
2023/10/27 08:31:38;;;;;;;3.33;1.60;;;9.10;99.90;;;;;;5107429;27;20140;-84
2023/10/27 08:34:25;;;;;;;5.32;2.00;;;9.10;99.90;;;;;;5114972;27;20057;-85
2023/10/27 08:37:13;;;;;;;4.68;2.13;;;9.10;99.90;;;;;;5116241;27;20343;-85
2023/10/27 08:40:01;;;;;;;4.97;1.63;;;9.20;99.90;;;;;;5108467;27;20047;-85
2023/10/27 08:42:56;;;;;;;2.88;1.27;;;9.20;99.90;;;;;;5112789;27;20070;-86
2023/10/27 08:45:44;;;;;;;2.42;1.33;;;9.20;99.90;;;;;;5122289;27;20126;-82
2023/10/27 08:48:37;;;;;;;3.08;1.85;;;9.20;99.90;;;;;;5114240;27;20367;-84
2023/10/27 08:51:26;;;;;;;4.82;1.88;;;9.20;99.90;;;;;;5117610;27;20115;-83
2023/10/27 08:54:13;;;;;;;3.03;1.73;;;9.20;99.90;;;;;;5117184;27;20434;-84
2023/10/27 08:57:02;;;;;;;3.45;1.40;;;9.20;99.90;;;;;;5112890;28;20431;-85
2023/10/27 08:59:50;;;;;;;2.33;1.50;;;9.30;99.90;;;;;;5114271;27;20233;-85
2023/10/27 09:02:38;;;;;;;3.88;2.10;;;9.30;99.90;;;;;;5103168;28;20043;-84
2023/10/27 09:05:32;;;;;;;3.08;1.98;;;9.30;99.90;;;;;;5131980;27;20082;-84
2023/10/27 09:08:20;;;;;;;2.15;1.90;;;9.30;99.90;;;;;;5115896;28;20054;-84
2023/10/27 09:11:44;;;;;;;2.28;1.73;;;9.30;99.90;;;;;;5134850;28;20125;-85
2023/10/27 09:14:31;;;;;;;2.30;1.90;;;9.30;99.90;;;;;;5138059;28;20046;-81
2023/10/27 09:17:19;;;;;;;4.38;2.30;;;9.30;99.90;;;;;;5142970;28;20054;-84
2023/10/27 09:20:09;;;;;;;2.42;1.90;;;9.30;99.90;;;;;;5136713;28;20058;-84
2023/10/27 09:23:04;;;;;;;3.28;1.70;;;9.40;99.90;;;;;;5144401;28;20071;-86
2023/10/27 09:25:56;;;;;;;2.08;1.77;;;9.40;99.90;;;;;;5118800;28;20429;-86
2023/10/27 09:28:44;;;;;;;4.82;1.73;;;9.40;99.90;;;;;;5130712;28;20107;-85
2023/10/27 09:31:34;;;;;;;2.92;1.70;;;9.40;99.90;;;;;;5113211;28;20065;-85
2023/10/27 09:34:26;;;;;;;7.10;2.65;;;9.50;99.90;;;;;;5129681;28;20040;-85
2023/10/27 09:37:17;;;;;;;5.40;2.00;;;9.50;99.90;;;;;;5118340;28;20035;-86
2023/10/27 09:40:11;;;;;;;2.35;1.60;;;9.50;99.90;;;;;;5115309;28;20136;-84
2023/10/27 09:43:02;;;;;;;5.35;2.20;;;9.60;99.90;;;;;;5121947;28;20093;-83
2023/10/27 09:45:54;;;;;;;6.20;2.10;;;9.70;99.90;;;;;;5113054;28;20050;-84
2023/10/27 09:48:45;;;;;;;4.05;2.65;;;9.80;99.90;;;;;;5108343;28;20625;-85
2023/10/27 09:51:38;;;;;;;3.45;1.90;;;10.00;99.90;;;;;;5104011;28;20067;-83
2023/10/27 09:54:37;;;;;;;7.25;1.83;;;10.00;99.90;;;;;;5112208;28;20051;-81
2023/10/27 09:57:39;;;;;;;3.03;1.98;;;10.00;99.90;;;;;;5114536;28;20043;-85
2023/10/27 10:00:28;;;;;;;4.63;1.77;;;10.10;99.90;;;;;;5096354;28;20047;-83
2023/10/27 10:03:23;;;;;;;8.73;1.85;;;10.10;99.90;;;;;;5119285;27;20035;-84
2023/10/27 10:06:11;;;;;;;5.97;2.03;;;10.10;99.90;;;;;;5135389;27;20047;-85
2023/10/27 10:09:11;;;;;;;2.97;1.67;;;10.20;99.90;;;;;;5104990;27;20047;-83
2023/10/27 10:12:01;;;;;;;5.72;1.98;;;11.00;99.90;;;;;;5134444;27;20054;-83
2023/10/27 10:14:49;;;;;;;3.38;1.45;;;11.00;99.90;;;;;;5134025;27;20080;-83
2023/10/27 10:17:43;;;;;;;4.25;1.42;;;11.00;99.90;;;;;;5124319;27;20124;-83
2023/10/27 10:20:47;;;;;;;3.33;1.33;;;11.40;99.90;;;;;;5131494;27;20035;-83
2023/10/27 10:23:38;;;;;;;5.90;1.13;;;11.30;99.90;;;;;;5137011;27;20537;-81
2023/10/27 10:27:13;;;;;;;12.20;1.50;;;11.30;99.90;;;;;;5148513;27;20118;-83
2023/10/27 10:30:18;;;;;;;;;;;11.30;99.90;;;;;;5119233;27;20046;-84
2023/10/27 10:33:14;;;;;;;3.10;1.02;;;11.90;99.90;;;;;;5130810;27;19919;-84
2023/10/27 10:36:14;;;;;;;2.97;0.88;;;13.30;99.90;;;;;;5132113;27;20356;-83
2023/10/27 10:39:10;;;;;;;6.50;1.38;;;13.50;99.90;;;;;;5125767;27;20055;-83
2023/10/27 10:42:01;;;;;;;6.60;1.40;;;12.80;99.90;;;;;;5129470;27;20474;-83
2023/10/27 10:44:49;;;;;;;3.40;1.38;;;12.20;99.90;;;;;;5117379;27;20800;-84
2023/10/27 10:47:36;;;;;;;4.97;1.42;;;12.00;99.90;;;;;;5131646;27;20139;-83
2023/10/27 10:50:28;;;;;;;6.30;1.50;;;11.90;1.00;;;;;;5130370;27;20114;-83
2023/10/27 10:53:26;;;;;;;3.97;1.37;;;12.70;1.00;;;;;;5128173;27;20042;-83
2023/10/27 10:56:16;;;;;;;6.43;1.00;;;14.00;1.00;;;;;;5120558;27;20043;-83
2023/10/27 10:59:06;;;;;;;2.20;1.10;;;15.00;99.90;;;;;;5126726;27;20035;-82
2023/10/27 11:01:57;;;;;;;6.55;1.73;;;15.00;1.00;;;;;;5132399;27;20039;-81
2023/10/27 11:04:45;;;;;;;2.95;1.27;;;14.60;45.00;;;;;;5132434;27;20118;-82
2023/10/27 11:07:35;;;;;;;3.95;1.50;;;15.30;99.90;;;;;;5133397;27;20097;-82
2023/10/27 11:10:23;;;;;;;3.10;1.23;;;15.90;99.90;;;;;;5124972;27;20031;-81
2023/10/27 11:13:13;;;;;;;2.90;1.10;;;16.10;1.00;;;;;;5132654;27;20039;-80
2023/10/27 11:16:11;;;;;;;10.40;1.23;;;16.40;99.90;;;;;;5115670;27;20127;-81
2023/10/27 11:18:59;;;;;;;3.75;1.00;;;16.90;99.90;;;;;;5113766;27;20486;-80
2023/10/27 11:21:53;;;;;;;2.60;1.10;;;16.60;99.90;;;;;;5131746;27;20431;-83
2023/10/27 11:24:47;;;;;;;3.10;0.85;;;16.60;96.40;;;;;;5115086;27;20091;-83
2023/10/27 11:27:34;;;;;;;4.65;1.08;;;16.50;1.00;;;;;;5114499;27;20115;-81
2023/10/27 11:30:24;;;;;;;2.72;1.33;;;16.40;1.00;;;;;;5115196;27;20117;-82
2023/10/27 11:33:16;;;;;;;6.93;1.30;;;16.90;1.00;;;;;;5128261;27;20051;-82
2023/10/27 11:36:14;;;;;;;4.25;1.00;;;17.20;1.00;;;;;;5131920;27;20043;-82
2023/10/27 11:39:23;;;;;;;6.60;1.50;;;17.10;1.00;;;;;;5132362;27;20051;-82
2023/10/27 11:42:13;;;;;;;1.88;0.85;;;17.00;1.00;;;;;;5128413;27;20181;-81
2023/10/27 11:45:01;;;;;;;4.78;1.30;;;15.90;99.90;;;;;;5133169;27;20040;-83
2023/10/27 11:47:48;;;;;;;3.80;1.30;;;15.00;99.90;;;;;;5132256;27;20046;-82
2023/10/27 11:50:38;;;;;;;4.20;1.40;;;14.10;1.00;;;;;;5123752;27;20054;-83
2023/10/27 11:53:30;;;;;;;2.30;0.93;;;13.40;1.00;;;;;;5128147;27;20043;-82
2023/10/27 11:56:18;;;;;;;4.03;1.27;;;13.00;38.60;;;;;;5112946;27;20043;-82
2023/10/27 11:59:11;;;;;;;3.88;1.15;;;12.80;99.90;;;;;;5132269;27;20055;-81
2023/10/27 12:02:02;;;;;;;3.00;1.13;;;13.10;99.90;;;;;;5127468;27;20176;-81
2023/10/27 12:04:50;;;;;;;4.35;1.20;;;12.70;99.90;;;;;;5131589;27;20370;-82
2023/10/27 12:07:38;;;;;;;3.80;1.42;;;12.60;99.90;;;;;;5127358;27;20050;-82
2023/10/27 12:10:32;;;;;;;6.88;1.50;;;12.50;99.90;;;;;;5131464;27;20119;-81
2023/10/27 12:13:22;;;;;;;5.05;1.23;;;12.60;99.90;;;;;;5118800;27;20382;-82
2023/10/27 12:16:13;;;;;;;4.55;1.25;;;12.60;99.90;;;;;;5124431;27;20155;-81
2023/10/27 12:19:04;;;;;;;4.53;1.65;;;12.80;99.90;;;;;;5127852;27;20043;-82
2023/10/27 12:21:56;;;;;;;5.68;1.63;;;12.60;99.90;;;;;;5129874;27;20382;-80
2023/10/27 12:24:46;;;;;;;5.45;1.33;;;12.50;99.90;;;;;;5127826;27;20378;-81
2023/10/27 12:27:37;;;;;;;4.75;1.13;;;12.50;99.90;;;;;;5116695;27;20075;-80
2023/10/27 12:30:27;;;;;;;3.63;1.35;;;12.60;99.90;;;;;;5107819;27;20426;-80
2023/10/27 12:33:14;;;;;;;3.97;1.35;;;12.70;1.00;;;;;;5118368;27;20039;-81
2023/10/27 12:36:10;;;;;;;5.70;1.30;;;12.60;99.90;;;;;;5106148;27;20043;-82
2023/10/27 12:39:01;;;;;;;3.50;1.30;;;12.40;99.90;;;;;;5124101;27;20051;-82
2023/10/27 12:41:51;;;;;;;3.10;1.10;;;12.30;99.90;;;;;;5117911;27;20058;-82
2023/10/27 12:44:38;;;;;;;2.00;1.05;;;12.30;1.00;;;;;;5109348;27;20035;-82
2023/10/27 12:47:28;;;;;;;3.92;1.00;;;12.20;1.00;;;;;;5117976;27;20086;-82
2023/10/27 12:50:17;;;;;;;4.38;1.20;;;11.80;1.00;;;;;;5114488;27;20126;-80
2023/10/27 12:53:05;;;;;;;2.20;0.90;;;11.40;1.00;;;;;;5121663;27;20051;-81
2023/10/27 12:55:52;;;;;;;4.13;1.33;;;11.00;1.00;;;;;;5128314;27;20124;-85
2023/10/27 12:58:46;;;;;;;5.82;1.30;;;10.80;99.90;;;;;;5125807;27;20122;-86
2023/10/27 13:01:42;;;;;;;3.53;1.25;;;10.70;1.00;;;;;;5116751;27;20050;-87
2023/10/27 13:04:30;;;;;;;4.45;1.60;;;10.80;30.40;;;;;;5130784;27;20729;-87
2023/10/27 13:07:18;;;;;;;6.05;1.35;;;11.00;36.50;;;;;;5128874;28;20031;-86
2023/10/27 13:10:08;;;;;;;4.97;1.15;;;11.10;1.00;;;;;;5121064;28;20523;-81
2023/10/27 13:13:00;;;;;;;4.40;1.52;;;11.10;1.00;;;;;;5128164;27;20137;-88
2023/10/27 13:15:48;;;;;;;3.03;1.45;;;11.40;99.90;;;;;;5128828;28;20053;-88
2023/10/27 13:18:37;;;;;;;1.55;1.10;;;11.60;99.90;;;;;;5130170;28;20042;-80
2023/10/27 13:21:28;;;;;;;8.68;1.30;;;12.10;1.00;;;;;;5132723;28;20055;-87
2023/10/27 13:24:16;;;;;;;4.55;1.63;;;13.00;99.90;;;;;;5143035;28;20048;-84
2023/10/27 13:27:03;;;;;;;2.55;1.60;;;14.60;99.90;;;;;;5148000;28;20043;-85
2023/10/27 13:29:58;;;;;;;2.05;0.82;;;15.90;99.90;;;;;;5143326;27;20486;-87
2023/10/27 13:32:49;;;;;;;1.70;0.90;;;16.30;99.90;;;;;;5140206;27;20047;-89
2023/10/27 13:35:37;;;;;;;1.63;0.70;;;16.40;1.00;;;;;;5139429;27;20059;-88
2023/10/27 13:38:25;;;;;;;1.77;0.70;;;16.50;99.90;;;;;;5133305;27;20062;-86
2023/10/27 13:41:19;;;;;;;3.35;1.10;;;14.60;99.90;;;;;;5138018;27;20035;-88
2023/10/27 13:44:07;;;;;;;2.63;1.08;;;13.30;99.90;;;;;;5118120;27;20054;-91
2023/10/27 13:46:55;;;;;;;2.30;0.95;;;12.70;1.00;;;;;;5140769;27;20061;-90
2023/10/27 13:49:42;;;;;;;1.77;0.90;;;12.60;99.90;;;;;;5132990;27;20228;-88
2023/10/27 13:52:33;;;;;;;3.90;1.20;;;12.30;1.00;;;;;;5133037;27;20075;-86
2023/10/27 13:55:26;;;;;;;2.17;1.10;;;12.20;24.20;;;;;;5140081;27;20047;-87
2023/10/27 13:58:14;;;;;;;3.70;1.00;;;11.90;99.90;;;;;;5122024;27;20145;-87
2023/10/27 14:01:03;;;;;;;2.13;0.90;;;11.90;99.90;;;;;;5119367;27;20112;-86
2023/10/27 14:03:51;;;;;;;3.25;1.10;;;11.90;99.90;;;;;;5130423;27;20047;-86
2023/10/27 14:06:46;;;;;;;1.17;0.90;;;11.90;99.90;;;;;;5139311;27;20043;-80
2023/10/27 14:09:34;;;;;;;3.63;1.10;;;11.90;1.00;;;;;;5130993;27;20046;-89
2023/10/27 14:12:21;;;;;;;1.83;0.85;;;11.90;99.90;;;;;;5135809;27;20042;-88
2023/10/27 14:15:13;;;;;;;3.50;0.63;;;11.90;99.90;;;;;;5134119;27;20047;-80
2023/10/27 14:18:02;;;;;;;1.40;0.80;;;11.90;99.90;;;;;;5129185;27;20043;-85
2023/10/27 14:20:54;;;;;;;2.90;0.90;;;12.00;99.90;;;;;;5126907;27;20111;-82
2023/10/27 14:23:41;;;;;;;3.20;0.80;;;11.90;98.90;;;;;;5135436;27;20035;-86
2023/10/27 14:26:31;;;;;;;2.65;0.90;;;12.10;4.70;;;;;;5129650;27;20070;-87
2023/10/27 14:29:21;;;;;;;1.90;0.82;;;12.30;1.00;;;;;;5130750;27;20180;-85
2023/10/27 14:32:11;;;;;;;2.45;0.90;;;12.30;1.00;;;;;;5134787;27;20047;-86
2023/10/27 14:34:59;;;;;;;2.05;0.90;;;12.20;1.00;;;;;;5119316;27;20499;-86
2023/10/27 14:37:51;;;;;;;3.97;1.13;;;12.00;1.00;;;;;;5136915;27;20039;-85
2023/10/27 14:40:42;;;;;;;3.05;1.15;;;11.80;1.00;;;;;;5133580;27;20043;-86
2023/10/27 14:43:29;;;;;;;3.00;1.02;;;11.70;1.00;;;;;;5128398;27;20046;-85
2023/10/27 14:46:17;;;;;;;5.13;1.00;;;11.60;1.00;;;;;;5130193;27;20039;-88
2023/10/27 14:49:07;;;;;;;4.00;1.08;;;11.50;31.60;;;;;;5126348;27;20059;-85
2023/10/27 14:51:55;;;;;;;2.00;0.80;;;11.50;99.90;;;;;;5133917;27;20059;-88
2023/10/27 14:54:43;;;;;;;2.90;0.85;;;11.50;99.90;;;;;;5122058;27;20043;-82